sensor_id;sensor_type;location;lat;lon;timestamp;P1;durP1;ratioP1;P2;durP2;ratioP2
7901;SDS011;3996;49.674;10.716;2024-03-17T00:01:36;2.90;;;1.70;;
7901;SDS011;3996;49.674;10.716;2024-03-17T00:04:02;2.50;;;1.53;;
7901;SDS011;3996;49.674;10.716;2024-03-17T00:06:28;1.90;;;1.70;;
7901;SDS011;3996;49.674;10.716;2024-03-17T00:08:55;2.67;;;1.47;;
7901;SDS011;3996;49.674;10.716;2024-03-17T00:11:20;1.83;;;1.40;;
7901;SDS011;3996;49.674;10.716;2024-03-17T00:13:46;3.37;;;2.10;;
7901;SDS011;3996;49.674;10.716;2024-03-17T00:16:13;2.57;;;2.20;;
7901;SDS011;3996;49.674;10.716;2024-03-17T00:18:39;4.80;;;3.30;;
7901;SDS011;3996;49.674;10.716;2024-03-17T00:21:05;3.27;;;2.97;;
7901;SDS011;3996;49.674;10.716;2024-03-17T00:23:31;2.20;;;1.90;;
7901;SDS011;3996;49.674;10.716;2024-03-17T00:25:57;3.63;;;2.90;;
7901;SDS011;3996;49.674;10.716;2024-03-17T00:28:22;3.77;;;3.47;;
7901;SDS011;3996;49.674;10.716;2024-03-17T00:30:49;4.57;;;4.00;;
7901;SDS011;3996;49.674;10.716;2024-03-17T00:33:15;3.23;;;2.93;;
7901;SDS011;3996;49.674;10.716;2024-03-17T00:35:41;5.77;;;4.03;;
7901;SDS011;3996;49.674;10.716;2024-03-17T00:38:06;4.20;;;3.80;;
7901;SDS011;3996;49.674;10.716;2024-03-17T00:40:38;4.30;;;3.90;;
7901;SDS011;3996;49.674;10.716;2024-03-17T00:43:05;4.33;;;3.50;;
7901;SDS011;3996;49.674;10.716;2024-03-17T00:45:31;3.93;;;2.83;;
7901;SDS011;3996;49.674;10.716;2024-03-17T00:47:57;4.53;;;3.97;;
7901;SDS011;3996;49.674;10.716;2024-03-17T00:50:22;3.63;;;3.33;;
7901;SDS011;3996;49.674;10.716;2024-03-17T00:52:48;3.40;;;3.10;;
7901;SDS011;3996;49.674;10.716;2024-03-17T00:55:13;3.67;;;3.37;;
7901;SDS011;3996;49.674;10.716;2024-03-17T00:57:39;3.20;;;2.83;;
7901;SDS011;3996;49.674;10.716;2024-03-17T01:00:06;4.13;;;2.70;;
7901;SDS011;3996;49.674;10.716;2024-03-17T01:02:32;3.13;;;2.70;;
7901;SDS011;3996;49.674;10.716;2024-03-17T01:04:57;4.10;;;2.57;;
7901;SDS011;3996;49.674;10.716;2024-03-17T01:07:23;3.33;;;2.40;;
7901;SDS011;3996;49.674;10.716;2024-03-17T01:09:48;3.77;;;2.83;;
7901;SDS011;3996;49.674;10.716;2024-03-17T01:12:14;4.63;;;4.10;;
7901;SDS011;3996;49.674;10.716;2024-03-17T01:14:40;5.03;;;3.70;;
7901;SDS011;3996;49.674;10.716;2024-03-17T01:17:05;3.20;;;2.87;;
7901;SDS011;3996;49.674;10.716;2024-03-17T01:19:31;4.30;;;2.60;;
7901;SDS011;3996;49.674;10.716;2024-03-17T01:21:57;4.83;;;2.83;;
7901;SDS011;3996;49.674;10.716;2024-03-17T01:24:25;4.23;;;2.80;;
7901;SDS011;3996;49.674;10.716;2024-03-17T01:26:53;3.13;;;2.37;;
7901;SDS011;3996;49.674;10.716;2024-03-17T01:29:18;3.03;;;2.73;;
7901;SDS011;3996;49.674;10.716;2024-03-17T01:31:44;3.20;;;2.90;;
7901;SDS011;3996;49.674;10.716;2024-03-17T01:34:09;3.97;;;2.67;;
7901;SDS011;3996;49.674;10.716;2024-03-17T01:36:36;3.37;;;2.40;;
7901;SDS011;3996;49.674;10.716;2024-03-17T01:39:01;3.40;;;2.63;;
7901;SDS011;3996;49.674;10.716;2024-03-17T01:41:27;4.70;;;2.93;;
7901;SDS011;3996;49.674;10.716;2024-03-17T01:43:53;2.90;;;2.40;;
7901;SDS011;3996;49.674;10.716;2024-03-17T01:46:18;3.50;;;2.30;;
7901;SDS011;3996;49.674;10.716;2024-03-17T01:48:44;3.57;;;2.80;;
7901;SDS011;3996;49.674;10.716;2024-03-17T01:51:11;2.93;;;2.00;;
7901;SDS011;3996;49.674;10.716;2024-03-17T01:53:39;3.80;;;2.27;;
7901;SDS011;3996;49.674;10.716;2024-03-17T01:56:06;4.97;;;3.10;;
7901;SDS011;3996;49.674;10.716;2024-03-17T01:58:34;4.33;;;2.90;;
7901;SDS011;3996;49.674;10.716;2024-03-17T02:01:01;4.47;;;2.50;;
7901;SDS011;3996;49.674;10.716;2024-03-17T02:03:28;4.83;;;2.90;;
7901;SDS011;3996;49.674;10.716;2024-03-17T02:05:53;3.27;;;2.40;;
7901;SDS011;3996;49.674;10.716;2024-03-17T02:08:19;4.73;;;2.40;;
7901;SDS011;3996;49.674;10.716;2024-03-17T02:10:49;3.27;;;2.30;;
7901;SDS011;3996;49.674;10.716;2024-03-17T02:13:20;4.00;;;2.70;;
7901;SDS011;3996;49.674;10.716;2024-03-17T02:15:46;4.17;;;2.80;;
7901;SDS011;3996;49.674;10.716;2024-03-17T02:18:12;3.27;;;2.73;;
7901;SDS011;3996;49.674;10.716;2024-03-17T02:20:38;3.83;;;2.87;;
7901;SDS011;3996;49.674;10.716;2024-03-17T02:23:20;4.93;;;3.40;;
7901;SDS011;3996;49.674;10.716;2024-03-17T02:25:45;4.03;;;2.73;;
7901;SDS011;3996;49.674;10.716;2024-03-17T02:28:12;5.07;;;3.17;;
7901;SDS011;3996;49.674;10.716;2024-03-17T02:30:38;4.30;;;2.90;;
7901;SDS011;3996;49.674;10.716;2024-03-17T02:33:04;3.60;;;3.13;;
7901;SDS011;3996;49.674;10.716;2024-03-17T02:35:29;4.17;;;3.57;;
7901;SDS011;3996;49.674;10.716;2024-03-17T02:37:55;3.70;;;2.83;;
7901;SDS011;3996;49.674;10.716;2024-03-17T02:40:21;4.07;;;3.37;;
7901;SDS011;3996;49.674;10.716;2024-03-17T02:42:47;5.10;;;3.90;;
7901;SDS011;3996;49.674;10.716;2024-03-17T02:45:12;3.83;;;3.30;;
7901;SDS011;3996;49.674;10.716;2024-03-17T02:47:38;5.37;;;3.97;;
7901;SDS011;3996;49.674;10.716;2024-03-17T02:50:04;4.73;;;4.00;;
7901;SDS011;3996;49.674;10.716;2024-03-17T02:52:31;5.37;;;4.30;;
7901;SDS011;3996;49.674;10.716;2024-03-17T02:54:56;4.70;;;3.97;;
7901;SDS011;3996;49.674;10.716;2024-03-17T02:57:22;4.50;;;3.50;;
7901;SDS011;3996;49.674;10.716;2024-03-17T02:59:54;3.83;;;3.40;;
7901;SDS011;3996;49.674;10.716;2024-03-17T03:02:20;4.47;;;3.40;;
7901;SDS011;3996;49.674;10.716;2024-03-17T03:04:45;4.40;;;3.13;;
7901;SDS011;3996;49.674;10.716;2024-03-17T03:07:11;4.93;;;3.30;;
7901;SDS011;3996;49.674;10.716;2024-03-17T03:09:37;3.87;;;3.27;;
7901;SDS011;3996;49.674;10.716;2024-03-17T03:12:03;5.43;;;4.83;;
7901;SDS011;3996;49.674;10.716;2024-03-17T03:14:28;5.70;;;5.00;;
7901;SDS011;3996;49.674;10.716;2024-03-17T03:16:55;6.70;;;5.30;;
7901;SDS011;3996;49.674;10.716;2024-03-17T03:19:20;4.43;;;3.90;;
7901;SDS011;3996;49.674;10.716;2024-03-17T03:21:46;5.47;;;4.33;;
7901;SDS011;3996;49.674;10.716;2024-03-17T03:24:13;4.30;;;3.73;;
7901;SDS011;3996;49.674;10.716;2024-03-17T03:26:39;5.80;;;3.30;;
7901;SDS011;3996;49.674;10.716;2024-03-17T03:29:05;5.20;;;3.27;;
7901;SDS011;3996;49.674;10.716;2024-03-17T03:31:31;5.40;;;3.33;;
7901;SDS011;3996;49.674;10.716;2024-03-17T03:33:57;3.07;;;2.77;;
7901;SDS011;3996;49.674;10.716;2024-03-17T03:36:26;5.33;;;3.60;;
7901;SDS011;3996;49.674;10.716;2024-03-17T03:38:52;3.83;;;2.93;;
7901;SDS011;3996;49.674;10.716;2024-03-17T03:41:18;5.17;;;3.23;;
7901;SDS011;3996;49.674;10.716;2024-03-17T03:43:44;3.40;;;2.90;;
7901;SDS011;3996;49.674;10.716;2024-03-17T03:46:12;4.90;;;3.23;;
7901;SDS011;3996;49.674;10.716;2024-03-17T03:48:37;3.47;;;2.93;;
7901;SDS011;3996;49.674;10.716;2024-03-17T03:51:03;2.97;;;2.67;;
7901;SDS011;3996;49.674;10.716;2024-03-17T03:53:30;2.93;;;2.60;;
7901;SDS011;3996;49.674;10.716;2024-03-17T03:55:57;4.73;;;3.23;;
7901;SDS011;3996;49.674;10.716;2024-03-17T03:58:23;3.10;;;2.80;;
7901;SDS011;3996;49.674;10.716;2024-03-17T04:00:49;3.47;;;2.53;;
7901;SDS011;3996;49.674;10.716;2024-03-17T04:03:15;3.77;;;2.77;;
7901;SDS011;3996;49.674;10.716;2024-03-17T04:05:40;3.20;;;2.90;;
7901;SDS011;3996;49.674;10.716;2024-03-17T04:08:06;4.00;;;2.80;;
7901;SDS011;3996;49.674;10.716;2024-03-17T04:10:31;2.90;;;2.43;;
7901;SDS011;3996;49.674;10.716;2024-03-17T04:12:57;4.60;;;3.43;;
7901;SDS011;3996;49.674;10.716;2024-03-17T04:15:23;3.53;;;2.83;;
7901;SDS011;3996;49.674;10.716;2024-03-17T04:17:48;3.53;;;2.97;;
7901;SDS011;3996;49.674;10.716;2024-03-17T04:20:14;3.43;;;3.13;;
7901;SDS011;3996;49.674;10.716;2024-03-17T04:22:40;3.33;;;2.77;;
7901;SDS011;3996;49.674;10.716;2024-03-17T04:25:08;4.30;;;3.37;;
7901;SDS011;3996;49.674;10.716;2024-03-17T04:27:34;7.37;;;4.50;;
7901;SDS011;3996;49.674;10.716;2024-03-17T04:30:00;15.80;;;9.33;;
7901;SDS011;3996;49.674;10.716;2024-03-17T04:32:26;7.93;;;5.37;;
7901;SDS011;3996;49.674;10.716;2024-03-17T04:34:55;19.13;;;12.83;;
7901;SDS011;3996;49.674;10.716;2024-03-17T04:37:21;13.83;;;9.40;;
7901;SDS011;3996;49.674;10.716;2024-03-17T04:39:47;4.77;;;3.90;;
7901;SDS011;3996;49.674;10.716;2024-03-17T04:42:15;4.30;;;3.17;;
7901;SDS011;3996;49.674;10.716;2024-03-17T04:44:44;3.40;;;3.07;;
7901;SDS011;3996;49.674;10.716;2024-03-17T04:47:10;4.40;;;3.37;;
7901;SDS011;3996;49.674;10.716;2024-03-17T04:49:37;4.40;;;2.77;;
7901;SDS011;3996;49.674;10.716;2024-03-17T04:52:09;6.07;;;3.30;;
7901;SDS011;3996;49.674;10.716;2024-03-17T04:54:35;8.13;;;5.57;;
7901;SDS011;3996;49.674;10.716;2024-03-17T04:57:01;10.10;;;7.13;;
7901;SDS011;3996;49.674;10.716;2024-03-17T04:59:27;12.10;;;8.40;;
7901;SDS011;3996;49.674;10.716;2024-03-17T05:01:53;17.90;;;11.77;;
7901;SDS011;3996;49.674;10.716;2024-03-17T05:04:19;18.10;;;12.03;;
7901;SDS011;3996;49.674;10.716;2024-03-17T05:06:45;17.53;;;11.07;;
7901;SDS011;3996;49.674;10.716;2024-03-17T05:09:12;16.40;;;10.20;;
7901;SDS011;3996;49.674;10.716;2024-03-17T05:11:41;11.90;;;8.60;;
7901;SDS011;3996;49.674;10.716;2024-03-17T05:14:06;14.03;;;9.03;;
7901;SDS011;3996;49.674;10.716;2024-03-17T05:16:33;10.13;;;7.50;;
7901;SDS011;3996;49.674;10.716;2024-03-17T05:18:58;9.43;;;5.57;;
7901;SDS011;3996;49.674;10.716;2024-03-17T05:21:24;6.27;;;4.50;;
7901;SDS011;3996;49.674;10.716;2024-03-17T05:23:51;4.93;;;3.63;;
7901;SDS011;3996;49.674;10.716;2024-03-17T05:26:17;3.83;;;3.23;;
7901;SDS011;3996;49.674;10.716;2024-03-17T05:28:43;4.17;;;3.13;;
7901;SDS011;3996;49.674;10.716;2024-03-17T05:31:09;3.80;;;3.07;;
7901;SDS011;3996;49.674;10.716;2024-03-17T05:33:35;3.80;;;3.27;;
7901;SDS011;3996;49.674;10.716;2024-03-17T05:36:01;3.33;;;3.00;;
7901;SDS011;3996;49.674;10.716;2024-03-17T05:38:30;5.73;;;3.30;;
7901;SDS011;3996;49.674;10.716;2024-03-17T05:40:56;4.33;;;3.03;;
7901;SDS011;3996;49.674;10.716;2024-03-17T05:43:22;4.33;;;3.20;;
7901;SDS011;3996;49.674;10.716;2024-03-17T05:45:54;3.60;;;3.20;;
7901;SDS011;3996;49.674;10.716;2024-03-17T05:48:22;5.10;;;3.13;;
7901;SDS011;3996;49.674;10.716;2024-03-17T05:50:49;3.50;;;2.80;;
7901;SDS011;3996;49.674;10.716;2024-03-17T05:53:16;4.00;;;3.17;;
7901;SDS011;3996;49.674;10.716;2024-03-17T05:55:43;4.30;;;3.70;;
7901;SDS011;3996;49.674;10.716;2024-03-17T05:58:08;3.97;;;3.27;;
7901;SDS011;3996;49.674;10.716;2024-03-17T06:00:35;4.70;;;3.67;;
7901;SDS011;3996;49.674;10.716;2024-03-17T06:03:01;5.13;;;3.73;;
7901;SDS011;3996;49.674;10.716;2024-03-17T06:05:26;5.17;;;4.20;;
7901;SDS011;3996;49.674;10.716;2024-03-17T06:07:53;5.30;;;4.00;;
7901;SDS011;3996;49.674;10.716;2024-03-17T06:10:18;5.87;;;4.20;;
7901;SDS011;3996;49.674;10.716;2024-03-17T06:12:49;4.73;;;3.93;;
7901;SDS011;3996;49.674;10.716;2024-03-17T06:15:15;6.87;;;3.90;;
7901;SDS011;3996;49.674;10.716;2024-03-17T06:17:41;8.20;;;4.23;;
7901;SDS011;3996;49.674;10.716;2024-03-17T06:20:07;6.37;;;4.50;;
7901;SDS011;3996;49.674;10.716;2024-03-17T06:22:36;5.57;;;4.17;;
7901;SDS011;3996;49.674;10.716;2024-03-17T06:25:01;6.70;;;4.80;;
7901;SDS011;3996;49.674;10.716;2024-03-17T06:27:27;5.50;;;4.07;;
7901;SDS011;3996;49.674;10.716;2024-03-17T06:29:54;4.97;;;4.47;;
7901;SDS011;3996;49.674;10.716;2024-03-17T06:32:20;9.17;;;4.60;;
7901;SDS011;3996;49.674;10.716;2024-03-17T06:34:45;6.50;;;5.30;;
7901;SDS011;3996;49.674;10.716;2024-03-17T06:37:11;7.03;;;5.03;;
7901;SDS011;3996;49.674;10.716;2024-03-17T06:39:37;7.23;;;5.10;;
7901;SDS011;3996;49.674;10.716;2024-03-17T06:42:02;5.50;;;4.57;;
7901;SDS011;3996;49.674;10.716;2024-03-17T06:44:28;4.87;;;4.17;;
7901;SDS011;3996;49.674;10.716;2024-03-17T06:46:55;6.10;;;4.73;;
7901;SDS011;3996;49.674;10.716;2024-03-17T06:49:21;5.40;;;4.80;;
7901;SDS011;3996;49.674;10.716;2024-03-17T06:51:46;7.27;;;4.60;;
7901;SDS011;3996;49.674;10.716;2024-03-17T06:54:13;5.90;;;4.73;;
7901;SDS011;3996;49.674;10.716;2024-03-17T06:56:39;5.00;;;4.47;;
7901;SDS011;3996;49.674;10.716;2024-03-17T06:59:05;5.00;;;4.50;;
7901;SDS011;3996;49.674;10.716;2024-03-17T07:01:30;7.53;;;5.07;;
7901;SDS011;3996;49.674;10.716;2024-03-17T07:03:56;6.47;;;4.90;;
7901;SDS011;3996;49.674;10.716;2024-03-17T07:06:23;6.93;;;4.93;;
7901;SDS011;3996;49.674;10.716;2024-03-17T07:08:49;7.70;;;5.77;;
7901;SDS011;3996;49.674;10.716;2024-03-17T07:11:14;6.40;;;5.07;;
7901;SDS011;3996;49.674;10.716;2024-03-17T07:13:42;6.00;;;4.90;;
7901;SDS011;3996;49.674;10.716;2024-03-17T07:16:08;6.77;;;4.37;;
7901;SDS011;3996;49.674;10.716;2024-03-17T07:18:35;5.67;;;4.70;;
7901;SDS011;3996;49.674;10.716;2024-03-17T07:21:02;6.63;;;4.20;;
7901;SDS011;3996;49.674;10.716;2024-03-17T07:23:29;5.77;;;4.33;;
7901;SDS011;3996;49.674;10.716;2024-03-17T07:25:56;5.53;;;4.50;;
7901;SDS011;3996;49.674;10.716;2024-03-17T07:28:23;6.30;;;4.73;;
7901;SDS011;3996;49.674;10.716;2024-03-17T07:30:55;6.77;;;4.87;;
7901;SDS011;3996;49.674;10.716;2024-03-17T07:33:22;5.97;;;4.80;;
7901;SDS011;3996;49.674;10.716;2024-03-17T07:38:16;5.23;;;4.30;;
7901;SDS011;3996;49.674;10.716;2024-03-17T07:40:43;4.00;;;3.50;;
7901;SDS011;3996;49.674;10.716;2024-03-17T07:43:09;4.77;;;3.87;;
7901;SDS011;3996;49.674;10.716;2024-03-17T07:45:35;5.20;;;4.33;;
7901;SDS011;3996;49.674;10.716;2024-03-17T07:48:00;7.33;;;4.17;;
7901;SDS011;3996;49.674;10.716;2024-03-17T07:50:26;5.30;;;4.50;;
7901;SDS011;3996;49.674;10.716;2024-03-17T07:52:52;6.20;;;4.70;;
7901;SDS011;3996;49.674;10.716;2024-03-17T07:55:17;4.60;;;4.07;;
7901;SDS011;3996;49.674;10.716;2024-03-17T07:57:43;5.73;;;4.50;;
7901;SDS011;3996;49.674;10.716;2024-03-17T08:00:09;6.10;;;4.60;;
7901;SDS011;3996;49.674;10.716;2024-03-17T08:02:44;5.40;;;4.13;;
7901;SDS011;3996;49.674;10.716;2024-03-17T08:05:11;4.90;;;4.30;;
7901;SDS011;3996;49.674;10.716;2024-03-17T08:07:36;4.70;;;4.20;;
7901;SDS011;3996;49.674;10.716;2024-03-17T08:10:02;6.07;;;4.00;;
7901;SDS011;3996;49.674;10.716;2024-03-17T08:12:28;5.90;;;3.90;;
7901;SDS011;3996;49.674;10.716;2024-03-17T08:14:54;5.27;;;4.10;;
7901;SDS011;3996;49.674;10.716;2024-03-17T08:17:20;4.77;;;3.80;;
7901;SDS011;3996;49.674;10.716;2024-03-17T08:19:45;5.17;;;3.83;;
7901;SDS011;3996;49.674;10.716;2024-03-17T08:22:12;4.93;;;4.13;;
7901;SDS011;3996;49.674;10.716;2024-03-17T08:24:37;9.43;;;3.93;;
7901;SDS011;3996;49.674;10.716;2024-03-17T08:27:03;5.30;;;4.10;;
7901;SDS011;3996;49.674;10.716;2024-03-17T08:29:29;4.40;;;3.90;;
7901;SDS011;3996;49.674;10.716;2024-03-17T08:31:54;4.03;;;3.50;;
7901;SDS011;3996;49.674;10.716;2024-03-17T08:34:20;5.17;;;4.13;;
7901;SDS011;3996;49.674;10.716;2024-03-17T08:36:46;8.53;;;4.57;;
7901;SDS011;3996;49.674;10.716;2024-03-17T08:39:11;5.57;;;4.30;;
7901;SDS011;3996;49.674;10.716;2024-03-17T08:41:37;11.30;;;4.13;;
7901;SDS011;3996;49.674;10.716;2024-03-17T08:44:02;4.10;;;3.70;;
7901;SDS011;3996;49.674;10.716;2024-03-17T08:46:29;5.07;;;3.93;;
7901;SDS011;3996;49.674;10.716;2024-03-17T08:48:54;5.57;;;3.77;;
7901;SDS011;3996;49.674;10.716;2024-03-17T08:51:20;5.47;;;4.10;;
7901;SDS011;3996;49.674;10.716;2024-03-17T08:53:46;5.40;;;3.93;;
7901;SDS011;3996;49.674;10.716;2024-03-17T08:56:11;5.53;;;4.50;;
7901;SDS011;3996;49.674;10.716;2024-03-17T08:58:37;4.07;;;3.67;;
7901;SDS011;3996;49.674;10.716;2024-03-17T09:01:03;8.30;;;4.73;;
7901;SDS011;3996;49.674;10.716;2024-03-17T09:03:33;4.90;;;4.07;;
7901;SDS011;3996;49.674;10.716;2024-03-17T09:05:59;5.57;;;3.93;;
7901;SDS011;3996;49.674;10.716;2024-03-17T09:08:25;6.37;;;4.07;;
7901;SDS011;3996;49.674;10.716;2024-03-17T09:10:53;4.23;;;3.83;;
7901;SDS011;3996;49.674;10.716;2024-03-17T09:13:20;4.97;;;3.73;;
7901;SDS011;3996;49.674;10.716;2024-03-17T09:15:59;6.63;;;3.63;;
7901;SDS011;3996;49.674;10.716;2024-03-17T09:18:31;5.63;;;3.93;;
7901;SDS011;3996;49.674;10.716;2024-03-17T09:23:28;4.07;;;3.60;;
7901;SDS011;3996;49.674;10.716;2024-03-17T09:25:58;5.10;;;3.40;;
7901;SDS011;3996;49.674;10.716;2024-03-17T09:28:26;4.43;;;3.77;;
7901;SDS011;3996;49.674;10.716;2024-03-17T09:30:52;4.97;;;4.00;;
7901;SDS011;3996;49.674;10.716;2024-03-17T09:33:19;4.30;;;3.70;;
7901;SDS011;3996;49.674;10.716;2024-03-17T09:35:52;6.10;;;3.80;;
7901;SDS011;3996;49.674;10.716;2024-03-17T09:38:22;5.60;;;3.93;;
7901;SDS011;3996;49.674;10.716;2024-03-17T09:40:47;7.60;;;3.90;;
7901;SDS011;3996;49.674;10.716;2024-03-17T09:43:16;4.40;;;3.40;;
7901;SDS011;3996;49.674;10.716;2024-03-17T09:45:41;6.27;;;3.47;;
7901;SDS011;3996;49.674;10.716;2024-03-17T09:48:07;4.37;;;3.37;;
7901;SDS011;3996;49.674;10.716;2024-03-17T09:50:54;4.37;;;3.27;;
7901;SDS011;3996;49.674;10.716;2024-03-17T09:53:31;4.80;;;3.47;;
7901;SDS011;3996;49.674;10.716;2024-03-17T09:56:02;4.70;;;3.33;;
7901;SDS011;3996;49.674;10.716;2024-03-17T09:58:34;3.47;;;3.17;;
7901;SDS011;3996;49.674;10.716;2024-03-17T10:00:59;3.70;;;2.37;;
7901;SDS011;3996;49.674;10.716;2024-03-17T10:06:20;4.13;;;2.40;;
7901;SDS011;3996;49.674;10.716;2024-03-17T10:08:48;5.03;;;3.00;;
7901;SDS011;3996;49.674;10.716;2024-03-17T10:11:16;5.13;;;3.67;;
7901;SDS011;3996;49.674;10.716;2024-03-17T10:13:43;4.67;;;3.37;;
7901;SDS011;3996;49.674;10.716;2024-03-17T10:16:20;4.10;;;3.10;;
7901;SDS011;3996;49.674;10.716;2024-03-17T10:18:46;4.37;;;3.60;;
7901;SDS011;3996;49.674;10.716;2024-03-17T10:21:24;4.83;;;3.27;;
7901;SDS011;3996;49.674;10.716;2024-03-17T10:24:05;4.43;;;3.50;;
7901;SDS011;3996;49.674;10.716;2024-03-17T10:26:37;3.87;;;3.30;;
7901;SDS011;3996;49.674;10.716;2024-03-17T10:31:55;3.60;;;3.30;;
7901;SDS011;3996;49.674;10.716;2024-03-17T10:34:22;4.53;;;3.23;;
7901;SDS011;3996;49.674;10.716;2024-03-17T10:39:37;3.90;;;3.50;;
7901;SDS011;3996;49.674;10.716;2024-03-17T10:42:05;4.50;;;3.63;;
7901;SDS011;3996;49.674;10.716;2024-03-17T10:44:32;3.30;;;3.00;;
7901;SDS011;3996;49.674;10.716;2024-03-17T10:47:01;5.30;;;3.70;;
7901;SDS011;3996;49.674;10.716;2024-03-17T10:49:30;4.97;;;3.67;;
7901;SDS011;3996;49.674;10.716;2024-03-17T10:51:57;4.40;;;4.00;;
7901;SDS011;3996;49.674;10.716;2024-03-17T10:54:27;4.67;;;3.70;;
7901;SDS011;3996;49.674;10.716;2024-03-17T10:56:57;5.43;;;3.50;;
7901;SDS011;3996;49.674;10.716;2024-03-17T10:59:46;4.20;;;3.40;;
7901;SDS011;3996;49.674;10.716;2024-03-17T11:04:56;4.00;;;3.17;;
7901;SDS011;3996;49.674;10.716;2024-03-17T11:07:23;4.17;;;3.27;;
7901;SDS011;3996;49.674;10.716;2024-03-17T11:09:52;4.07;;;3.17;;
7901;SDS011;3996;49.674;10.716;2024-03-17T11:17:44;5.13;;;3.70;;
7901;SDS011;3996;49.674;10.716;2024-03-17T11:20:19;4.53;;;3.53;;
7901;SDS011;3996;49.674;10.716;2024-03-17T11:22:49;5.00;;;3.73;;
7901;SDS011;3996;49.674;10.716;2024-03-17T11:27:56;5.00;;;3.57;;
7901;SDS011;3996;49.674;10.716;2024-03-17T11:44:15;4.67;;;3.70;;
7901;SDS011;3996;49.674;10.716;2024-03-17T11:47:05;4.40;;;3.90;;
7901;SDS011;3996;49.674;10.716;2024-03-17T11:52:02;5.50;;;3.60;;
7901;SDS011;3996;49.674;10.716;2024-03-17T11:54:39;3.73;;;3.33;;
7901;SDS011;3996;49.674;10.716;2024-03-17T11:59:32;6.43;;;3.70;;
7901;SDS011;3996;49.674;10.716;2024-03-17T12:01:58;4.60;;;4.17;;
7901;SDS011;3996;49.674;10.716;2024-03-17T12:04:25;4.30;;;3.70;;
7901;SDS011;3996;49.674;10.716;2024-03-17T12:06:58;4.60;;;4.00;;
7901;SDS011;3996;49.674;10.716;2024-03-17T12:09:24;4.60;;;3.87;;
7901;SDS011;3996;49.674;10.716;2024-03-17T12:11:57;5.40;;;4.17;;
7901;SDS011;3996;49.674;10.716;2024-03-17T12:14:23;4.40;;;4.00;;
7901;SDS011;3996;49.674;10.716;2024-03-17T12:16:51;5.13;;;3.77;;
7901;SDS011;3996;49.674;10.716;2024-03-17T12:19:21;5.37;;;4.10;;
7901;SDS011;3996;49.674;10.716;2024-03-17T12:21:48;5.13;;;4.00;;
7901;SDS011;3996;49.674;10.716;2024-03-17T12:24:16;5.63;;;4.23;;
7901;SDS011;3996;49.674;10.716;2024-03-17T12:26:43;4.97;;;4.00;;
7901;SDS011;3996;49.674;10.716;2024-03-17T12:34:41;4.00;;;3.53;;
7901;SDS011;3996;49.674;10.716;2024-03-17T12:37:08;4.30;;;3.70;;
7901;SDS011;3996;49.674;10.716;2024-03-17T12:39:40;4.80;;;3.63;;
7901;SDS011;3996;49.674;10.716;2024-03-17T12:42:11;4.47;;;3.30;;
7901;SDS011;3996;49.674;10.716;2024-03-17T12:47:18;5.53;;;4.10;;
7901;SDS011;3996;49.674;10.716;2024-03-17T12:49:44;5.23;;;4.30;;
7901;SDS011;3996;49.674;10.716;2024-03-17T12:52:33;4.33;;;3.83;;
7901;SDS011;3996;49.674;10.716;2024-03-17T12:54:59;5.57;;;4.03;;
7901;SDS011;3996;49.674;10.716;2024-03-17T12:57:44;4.93;;;4.03;;
7901;SDS011;3996;49.674;10.716;2024-03-17T13:00:28;7.70;;;4.20;;
7901;SDS011;3996;49.674;10.716;2024-03-17T13:02:57;5.63;;;4.03;;
7901;SDS011;3996;49.674;10.716;2024-03-17T13:05:23;4.53;;;3.43;;
7901;SDS011;3996;49.674;10.716;2024-03-17T13:07:49;6.17;;;5.03;;
7901;SDS011;3996;49.674;10.716;2024-03-17T13:10:18;5.63;;;4.67;;
7901;SDS011;3996;49.674;10.716;2024-03-17T13:12:44;4.13;;;3.57;;
7901;SDS011;3996;49.674;10.716;2024-03-17T13:15:15;5.03;;;3.70;;
7901;SDS011;3996;49.674;10.716;2024-03-17T13:17:42;4.07;;;3.50;;
7901;SDS011;3996;49.674;10.716;2024-03-17T13:20:15;5.10;;;4.03;;
7901;SDS011;3996;49.674;10.716;2024-03-17T13:22:41;6.27;;;4.57;;
7901;SDS011;3996;49.674;10.716;2024-03-17T13:25:11;4.00;;;3.60;;
7901;SDS011;3996;49.674;10.716;2024-03-17T13:27:43;5.47;;;4.33;;
7901;SDS011;3996;49.674;10.716;2024-03-17T13:30:10;5.33;;;4.07;;
7901;SDS011;3996;49.674;10.716;2024-03-17T13:32:40;5.07;;;4.00;;
7901;SDS011;3996;49.674;10.716;2024-03-17T13:35:17;4.20;;;3.80;;
7901;SDS011;3996;49.674;10.716;2024-03-17T13:37:47;5.00;;;3.90;;
7901;SDS011;3996;49.674;10.716;2024-03-17T13:40:14;5.40;;;3.83;;
7901;SDS011;3996;49.674;10.716;2024-03-17T13:42:51;6.83;;;4.00;;
7901;SDS011;3996;49.674;10.716;2024-03-17T13:45:18;5.43;;;3.63;;
7901;SDS011;3996;49.674;10.716;2024-03-17T13:48:01;4.60;;;3.80;;
7901;SDS011;3996;49.674;10.716;2024-03-17T13:50:31;4.13;;;3.57;;
7901;SDS011;3996;49.674;10.716;2024-03-17T13:52:57;4.73;;;4.13;;
7901;SDS011;3996;49.674;10.716;2024-03-17T13:55:23;5.10;;;4.27;;
7901;SDS011;3996;49.674;10.716;2024-03-17T13:57:51;10.23;;;9.13;;
7901;SDS011;3996;49.674;10.716;2024-03-17T14:00:24;6.50;;;5.20;;
7901;SDS011;3996;49.674;10.716;2024-03-17T14:02:52;4.53;;;4.13;;
7901;SDS011;3996;49.674;10.716;2024-03-17T14:05:19;5.10;;;4.30;;
7901;SDS011;3996;49.674;10.716;2024-03-17T14:07:46;5.60;;;4.23;;
7901;SDS011;3996;49.674;10.716;2024-03-17T14:10:16;6.30;;;4.27;;
7901;SDS011;3996;49.674;10.716;2024-03-17T14:12:43;5.47;;;4.60;;
7901;SDS011;3996;49.674;10.716;2024-03-17T14:15:09;6.97;;;4.77;;
7901;SDS011;3996;49.674;10.716;2024-03-17T14:17:39;6.00;;;4.90;;
7901;SDS011;3996;49.674;10.716;2024-03-17T14:20:05;5.47;;;4.67;;
7901;SDS011;3996;49.674;10.716;2024-03-17T14:22:38;6.37;;;4.70;;
7901;SDS011;3996;49.674;10.716;2024-03-17T14:25:05;5.53;;;4.17;;
7901;SDS011;3996;49.674;10.716;2024-03-17T14:27:31;5.73;;;4.43;;
7901;SDS011;3996;49.674;10.716;2024-03-17T14:29:57;6.30;;;4.73;;
7901;SDS011;3996;49.674;10.716;2024-03-17T14:32:22;5.57;;;5.07;;
7901;SDS011;3996;49.674;10.716;2024-03-17T14:34:48;7.03;;;4.47;;
7901;SDS011;3996;49.674;10.716;2024-03-17T14:37:14;5.30;;;4.07;;
7901;SDS011;3996;49.674;10.716;2024-03-17T14:39:40;7.13;;;4.23;;
7901;SDS011;3996;49.674;10.716;2024-03-17T14:42:06;6.47;;;4.77;;
7901;SDS011;3996;49.674;10.716;2024-03-17T14:44:33;4.60;;;4.20;;
7901;SDS011;3996;49.674;10.716;2024-03-17T14:47:00;6.80;;;4.40;;
7901;SDS011;3996;49.674;10.716;2024-03-17T14:49:26;5.50;;;4.20;;
7901;SDS011;3996;49.674;10.716;2024-03-17T14:51:52;4.37;;;3.73;;
7901;SDS011;3996;49.674;10.716;2024-03-17T14:54:17;4.77;;;3.93;;
7901;SDS011;3996;49.674;10.716;2024-03-17T14:56:43;4.10;;;3.70;;
7901;SDS011;3996;49.674;10.716;2024-03-17T14:59:09;5.27;;;4.50;;
7901;SDS011;3996;49.674;10.716;2024-03-17T15:01:37;5.73;;;4.30;;
7901;SDS011;3996;49.674;10.716;2024-03-17T15:04:02;6.57;;;4.20;;
7901;SDS011;3996;49.674;10.716;2024-03-17T15:06:28;4.17;;;3.50;;
7901;SDS011;3996;49.674;10.716;2024-03-17T15:08:53;4.43;;;3.47;;
7901;SDS011;3996;49.674;10.716;2024-03-17T15:11:19;4.27;;;3.53;;
7901;SDS011;3996;49.674;10.716;2024-03-17T15:13:45;4.33;;;3.63;;
7901;SDS011;3996;49.674;10.716;2024-03-17T15:16:10;4.50;;;3.70;;
7901;SDS011;3996;49.674;10.716;2024-03-17T15:18:37;5.47;;;3.60;;
7901;SDS011;3996;49.674;10.716;2024-03-17T15:21:03;4.30;;;3.53;;
7901;SDS011;3996;49.674;10.716;2024-03-17T15:23:31;5.00;;;4.00;;
7901;SDS011;3996;49.674;10.716;2024-03-17T15:26:01;4.40;;;3.37;;
7901;SDS011;3996;49.674;10.716;2024-03-17T15:28:38;4.40;;;3.60;;
7901;SDS011;3996;49.674;10.716;2024-03-17T15:31:05;4.87;;;3.93;;
7901;SDS011;3996;49.674;10.716;2024-03-17T15:33:31;6.50;;;4.00;;
7901;SDS011;3996;49.674;10.716;2024-03-17T15:36:00;5.43;;;3.73;;
7901;SDS011;3996;49.674;10.716;2024-03-17T15:38:26;4.67;;;3.60;;
7901;SDS011;3996;49.674;10.716;2024-03-17T15:40:52;4.77;;;3.40;;
7901;SDS011;3996;49.674;10.716;2024-03-17T15:43:18;3.80;;;3.40;;
7901;SDS011;3996;49.674;10.716;2024-03-17T15:45:43;4.63;;;3.70;;
7901;SDS011;3996;49.674;10.716;2024-03-17T15:48:09;5.57;;;4.30;;
7901;SDS011;3996;49.674;10.716;2024-03-17T15:50:34;4.43;;;3.60;;
7901;SDS011;3996;49.674;10.716;2024-03-17T15:53:00;4.27;;;3.37;;